createdAt,value
2018-11-28T00:00:30.211Z,7.10
2018-11-28T00:03:01.713Z,7.10
2018-11-28T00:05:30.896Z,7.20
2018-11-28T00:07:59.720Z,7.10
2018-11-28T00:10:28.520Z,7.10
2018-11-28T00:12:57.323Z,7.10
2018-11-28T00:15:26.137Z,7.10
2018-11-28T00:17:54.959Z,7.10
2018-11-28T00:20:24.060Z,7.10
2018-11-28T00:22:53.096Z,7.10
2018-11-28T00:25:22.249Z,7.20
2018-11-28T00:27:51.119Z,7.20
2018-11-28T00:30:24.031Z,7.20
2018-11-28T00:32:52.891Z,7.20
2018-11-28T00:35:23.113Z,7.20
2018-11-28T00:37:52.027Z,7.20
2018-11-28T00:40:22.185Z,7.20
2018-11-28T00:42:50.981Z,7.20
2018-11-28T00:45:23.968Z,7.20
2018-11-28T00:47:52.819Z,7.20
2018-11-28T00:50:26.163Z,7.20
2018-11-28T00:52:55.000Z,7.20
2018-11-28T00:55:23.819Z,7.20
2018-11-28T00:57:52.621Z,7.20
2018-11-28T01:00:23.299Z,7.20
2018-11-28T01:02:52.133Z,7.30
2018-11-28T01:05:21.212Z,7.20
2018-11-28T01:07:52.348Z,7.20
2018-11-28T01:10:22.436Z,7.20
2018-11-28T01:12:52.222Z,7.20
2018-11-28T01:15:21.578Z,7.20
2018-11-28T01:17:50.377Z,7.20
2018-11-28T01:20:21.219Z,7.20
2018-11-28T01:22:50.009Z,7.20
2018-11-28T01:25:20.708Z,7.10
2018-11-28T01:27:50.066Z,7.10
2018-11-28T01:30:22.284Z,7.10
2018-11-28T01:32:51.163Z,7.10
2018-11-28T01:35:20.806Z,7.00
2018-11-28T01:37:49.668Z,7.00
2018-11-28T01:40:23.088Z,7.00
2018-11-28T01:42:52.495Z,7.00
2018-11-28T01:45:22.734Z,6.90
2018-11-28T01:47:51.555Z,6.90
2018-11-28T01:50:21.628Z,6.90
2018-11-28T01:52:50.545Z,6.90
2018-11-28T01:55:20.918Z,6.90
2018-11-28T01:57:49.747Z,6.90
2018-11-28T02:00:21.224Z,6.80
2018-11-28T02:02:53.453Z,6.80
2018-11-28T02:05:22.268Z,6.80
2018-11-28T02:07:51.781Z,6.70
2018-11-28T02:10:20.652Z,6.70
2018-11-28T02:12:49.424Z,6.70
2018-11-28T02:15:20.456Z,6.70
2018-11-28T02:17:49.261Z,6.60
2018-11-28T02:20:18.481Z,6.60
2018-11-28T02:22:47.336Z,6.60
2018-11-28T02:25:18.213Z,6.60
2018-11-28T02:27:47.616Z,6.60
2018-11-28T02:30:18.539Z,6.60
2018-11-28T02:32:48.491Z,6.50
2018-11-28T02:35:18.087Z,6.50
2018-11-28T02:37:47.167Z,6.50
2018-11-28T02:40:20.743Z,6.50
2018-11-28T02:42:50.542Z,6.50
2018-11-28T02:45:21.707Z,6.40
2018-11-28T02:47:51.517Z,6.40
2018-11-28T02:50:20.327Z,6.40
2018-11-28T02:52:49.158Z,6.40
2018-11-28T02:55:18.676Z,6.40
2018-11-28T02:57:49.851Z,6.30
2018-11-28T03:00:26.537Z,6.30
2018-11-28T03:02:55.316Z,6.20
2018-11-28T03:05:24.125Z,6.20
2018-11-28T03:07:53.657Z,6.10
2018-11-28T03:10:23.603Z,6.10
2018-11-28T03:12:52.452Z,6.00
2018-11-28T03:15:28.076Z,5.90
2018-11-28T03:17:56.883Z,5.90
2018-11-28T03:20:25.774Z,5.90
2018-11-28T03:22:54.582Z,5.80
2018-11-28T03:25:23.389Z,5.80
2018-11-28T03:27:52.180Z,5.70
2018-11-28T03:30:21.019Z,5.70
2018-11-28T03:32:49.907Z,5.60
2018-11-28T03:35:18.672Z,5.60
2018-11-28T03:37:47.870Z,4.60
2018-11-28T03:40:16.724Z,5.50
2018-11-28T03:42:45.549Z,5.40
2018-11-28T03:45:15.616Z,5.40
2018-11-28T03:47:45.481Z,5.40
2018-11-28T03:50:15.524Z,5.30
2018-11-28T03:52:44.364Z,5.30
2018-11-28T03:55:14.318Z,5.30
2018-11-28T03:57:44.643Z,5.20
2018-11-28T04:00:17.103Z,5.20
2018-11-28T04:02:45.955Z,5.20
2018-11-28T04:05:14.836Z,5.20
2018-11-28T04:07:43.657Z,5.10
2018-11-28T04:10:14.227Z,5.10
2018-11-28T04:12:43.981Z,5.10
2018-11-28T04:15:18.243Z,5.00
2018-11-28T04:17:47.642Z,5.00
2018-11-28T04:20:18.895Z,5.00
2018-11-28T04:22:47.721Z,4.90
2018-11-28T04:25:18.060Z,4.90
2018-11-28T04:27:46.958Z,4.90
2018-11-28T04:30:18.231Z,4.80
2018-11-28T04:32:48.270Z,4.80
2018-11-28T04:35:17.109Z,4.80
2018-11-28T04:37:46.539Z,4.80
2018-11-28T04:40:17.621Z,4.70
2018-11-28T04:42:47.296Z,4.80
2018-11-28T04:45:19.625Z,4.70
2018-11-28T04:47:48.484Z,4.70
2018-11-28T04:50:17.338Z,4.60
2018-11-28T04:52:46.772Z,4.60
2018-11-28T04:55:18.116Z,4.60
2018-11-28T04:57:47.240Z,4.50
2018-11-28T05:00:19.591Z,4.50
2018-11-28T05:02:48.679Z,4.50
2018-11-28T05:05:17.617Z,4.40
2018-11-28T05:07:47.345Z,4.40
2018-11-28T05:10:20.783Z,4.40
2018-11-28T05:12:50.661Z,4.30
2018-11-28T05:15:20.924Z,4.30
2018-11-28T05:17:51.027Z,4.30
2018-11-28T05:20:21.384Z,4.30
2018-11-28T05:22:50.200Z,4.20
2018-11-28T05:25:20.192Z,4.20
2018-11-28T05:27:49.985Z,4.20
2018-11-28T05:30:22.471Z,4.20
2018-11-28T05:32:51.270Z,4.20
2018-11-28T05:35:25.878Z,4.20
2018-11-28T05:37:55.266Z,4.20
2018-11-28T05:40:26.442Z,4.10
2018-11-28T05:42:55.588Z,4.10
2018-11-28T05:45:24.409Z,4.10
2018-11-28T05:47:53.794Z,4.10
2018-11-28T05:50:23.033Z,4.10
2018-11-28T05:52:51.945Z,4.00
2018-11-28T05:55:22.252Z,4.00
2018-11-28T05:57:51.151Z,4.00
2018-11-28T06:00:36.689Z,4.00
2018-11-28T06:03:07.324Z,4.00
2018-11-28T06:05:36.208Z,4.00
2018-11-28T06:08:05.488Z,4.00
2018-11-28T06:10:34.591Z,4.00
2018-11-28T06:13:03.467Z,3.90
2018-11-28T06:15:32.325Z,3.90
2018-11-28T06:18:01.135Z,4.00
2018-11-28T06:20:29.983Z,3.90
2018-11-28T06:22:58.813Z,3.90
2018-11-28T06:25:27.626Z,3.90
2018-11-28T06:27:56.452Z,3.90
2018-11-28T06:30:25.520Z,3.90
2018-11-28T06:32:54.342Z,3.90
2018-11-28T06:35:23.123Z,3.90
2018-11-28T06:37:51.929Z,3.90
2018-11-28T06:40:24.014Z,3.90
2018-11-28T06:42:49.642Z,3.90
2018-11-28T06:45:20.416Z,3.80
2018-11-28T06:47:49.199Z,3.80
2018-11-28T06:50:19.222Z,3.90
2018-11-28T06:52:51.158Z,3.80
2018-11-28T06:55:21.973Z,3.80
2018-11-28T06:57:50.814Z,3.80
2018-11-28T07:00:21.952Z,3.80
2018-11-28T07:02:52.194Z,3.80
2018-11-28T07:05:21.897Z,3.80
2018-11-28T07:07:50.985Z,3.80
2018-11-28T07:10:21.922Z,3.80
2018-11-28T07:12:51.015Z,3.90
2018-11-28T07:15:22.147Z,3.90
2018-11-28T07:17:50.967Z,3.90
2018-11-28T07:20:19.770Z,3.90
2018-11-28T07:22:48.560Z,3.90
2018-11-28T07:25:19.116Z,3.90
2018-11-28T07:27:48.972Z,3.90
2018-11-28T07:30:20.255Z,3.90
2018-11-28T07:32:50.978Z,3.90
2018-11-28T07:35:19.804Z,3.90
2018-11-28T07:37:48.604Z,3.90
2018-11-28T07:40:25.861Z,3.90
2018-11-28T07:43:11.255Z,3.80
2018-11-28T07:45:44.142Z,3.80
2018-11-28T07:48:12.947Z,3.80
2018-11-28T07:50:41.756Z,3.90
2018-11-28T07:53:10.866Z,3.90
2018-11-28T07:55:39.746Z,3.90
2018-11-28T07:58:08.592Z,3.90
2018-11-28T08:00:37.957Z,3.90
2018-11-28T08:03:08.797Z,3.90
2018-11-28T08:05:38.941Z,3.90
2018-11-28T08:08:10.444Z,4.00
2018-11-28T08:10:39.297Z,4.00
2018-11-28T08:13:09.602Z,4.00
2018-11-28T08:15:38.431Z,4.00
2018-11-28T08:18:07.263Z,4.00
2018-11-28T08:20:36.390Z,4.10
2018-11-28T08:23:05.502Z,4.10
2018-11-28T08:25:34.592Z,4.10
2018-11-28T08:28:03.483Z,4.10
2018-11-28T08:30:32.320Z,4.10
2018-11-28T08:33:01.154Z,4.10
2018-11-28T08:35:30.282Z,4.10
2018-11-28T08:38:05.899Z,4.20
2018-11-28T08:40:34.747Z,4.20
2018-11-28T08:43:03.918Z,4.20
2018-11-28T08:45:32.718Z,4.30
2018-11-28T08:48:01.610Z,4.30
2018-11-28T08:50:33.600Z,4.30
2018-11-28T08:53:02.847Z,4.30
2018-11-28T08:55:31.656Z,4.30
2018-11-28T08:58:00.464Z,4.40
2018-11-28T09:00:29.284Z,4.40
2018-11-28T09:02:58.773Z,4.50
2018-11-28T09:05:27.693Z,4.50
2018-11-28T09:07:56.487Z,4.50
2018-11-28T09:10:25.333Z,4.60
2018-11-28T09:12:54.121Z,4.60
2018-11-28T09:15:27.705Z,4.70
2018-11-28T09:17:56.812Z,4.70
2018-11-28T09:20:25.604Z,4.80
2018-11-28T09:22:54.455Z,4.80
2018-11-28T09:25:23.269Z,4.90
2018-11-28T09:27:53.903Z,4.90
2018-11-28T09:30:22.707Z,4.90
2018-11-28T09:32:51.769Z,5.00
2018-11-28T09:35:20.938Z,5.00
2018-11-28T09:37:50.315Z,5.10
2018-11-28T09:40:20.729Z,5.10
2018-11-28T09:42:50.612Z,5.20
2018-11-28T09:45:20.150Z,5.20
2018-11-28T09:47:48.952Z,5.20
2018-11-28T09:50:19.232Z,5.30
2018-11-28T09:52:48.140Z,5.30
2018-11-28T09:55:20.485Z,5.30
2018-11-28T09:57:49.684Z,5.40
2018-11-28T10:00:23.915Z,5.40
2018-11-28T10:02:54.972Z,5.50
2018-11-28T10:05:27.337Z,5.50
2018-11-28T10:07:59.328Z,5.60
2018-11-28T10:10:28.219Z,5.60
2018-11-28T10:12:57.114Z,5.70
2018-11-28T10:15:27.933Z,5.70
2018-11-28T10:17:56.786Z,5.80
2018-11-28T10:20:25.579Z,5.80
2018-11-28T10:22:54.409Z,5.90
2018-11-28T10:25:26.259Z,5.90
2018-11-28T10:28:00.852Z,6.00
2018-11-28T10:30:32.467Z,6.00
2018-11-28T10:33:01.496Z,6.10
2018-11-28T10:35:30.388Z,6.10
2018-11-28T10:37:59.219Z,6.10
2018-11-28T10:40:28.087Z,6.20
2018-11-28T10:42:58.431Z,6.20
2018-11-28T10:45:28.520Z,6.20
2018-11-28T10:47:57.380Z,6.30
2018-11-28T10:50:26.223Z,6.30
2018-11-28T10:52:55.020Z,6.30
2018-11-28T10:55:25.325Z,6.30
2018-11-28T10:57:54.145Z,6.40
2018-11-28T11:00:35.772Z,6.40
2018-11-28T11:03:11.449Z,6.40
2018-11-28T11:05:45.577Z,6.40
2018-11-28T11:08:19.739Z,6.50
2018-11-28T11:10:53.859Z,6.50
2018-11-28T11:13:27.938Z,6.50
2018-11-28T11:15:58.009Z,6.50
2018-11-28T11:18:27.692Z,6.50
2018-11-28T11:20:56.407Z,6.60
2018-11-28T11:23:25.304Z,6.60
2018-11-28T11:25:54.262Z,6.60
2018-11-28T11:28:23.140Z,6.60
2018-11-28T11:30:52.162Z,6.60
2018-11-28T11:33:21.045Z,6.60
2018-11-28T11:35:49.858Z,6.60
2018-11-28T11:38:18.654Z,6.70
2018-11-28T11:40:47.441Z,6.70
2018-11-28T11:43:16.287Z,6.70
2018-11-28T11:45:45.086Z,6.80
2018-11-28T11:48:13.881Z,6.80
2018-11-28T11:50:42.670Z,6.80
2018-11-28T11:53:11.951Z,6.80
2018-11-28T11:55:40.725Z,6.80
2018-11-28T11:58:09.503Z,6.90
2018-11-28T12:00:40.741Z,6.90
2018-11-28T12:03:11.553Z,6.90
2018-11-28T12:05:43.074Z,7.00
2018-11-28T12:08:11.882Z,7.10
2018-11-28T12:10:40.669Z,7.10
2018-11-28T12:13:09.776Z,7.20
2018-11-28T12:15:38.630Z,7.20
2018-11-28T12:18:07.778Z,7.20
2018-11-28T12:20:56.794Z,7.20
2018-11-28T12:23:25.572Z,7.20
2018-11-28T12:25:54.361Z,7.20
2018-11-28T12:28:23.488Z,7.20
2018-11-28T12:30:52.286Z,7.20
2018-11-28T12:33:21.097Z,7.20
2018-11-28T12:35:49.892Z,7.20
2018-11-28T12:38:18.680Z,7.20
2018-11-28T12:40:47.467Z,7.20
2018-11-28T12:43:16.258Z,7.20
2018-11-28T12:45:47.199Z,7.20
2018-11-28T12:48:16.050Z,7.20
2018-11-28T12:50:44.899Z,7.20
2018-11-28T12:53:14.485Z,7.20
2018-11-28T12:55:43.247Z,7.20
2018-11-28T12:58:15.189Z,7.20
2018-11-28T13:00:44.015Z,7.30
2018-11-28T13:03:14.931Z,7.20
2018-11-28T13:05:43.759Z,7.20
2018-11-28T13:08:12.519Z,7.30
2018-11-28T13:10:42.029Z,7.20
2018-11-28T13:13:12.256Z,7.20
2018-11-28T13:15:41.087Z,7.20
2018-11-28T13:18:11.257Z,7.20
2018-11-28T13:20:41.700Z,7.30
2018-11-28T13:23:12.418Z,7.30
2018-11-28T13:25:41.229Z,7.30
2018-11-28T13:28:10.070Z,7.30
2018-11-28T13:30:39.154Z,7.30
2018-11-28T13:33:08.804Z,7.30
2018-11-28T13:35:38.102Z,7.30
2018-11-28T13:38:10.925Z,7.30
2018-11-28T13:40:40.022Z,7.30
2018-11-28T13:43:08.827Z,7.30
2018-11-28T13:45:41.845Z,7.30
2018-11-28T13:48:10.717Z,7.30
2018-11-28T13:50:39.494Z,7.30
2018-11-28T13:53:14.829Z,7.30
2018-11-28T13:56:57.422Z,7.30
2018-11-28T13:58:22.050Z,7.30
2018-11-28T14:00:50.860Z,7.20
2018-11-28T14:03:19.657Z,7.20
2018-11-28T14:05:48.465Z,7.20
2018-11-28T14:08:17.258Z,7.20
2018-11-28T14:10:46.044Z,7.20
2018-11-28T14:13:15.389Z,7.20
2018-11-28T14:15:43.933Z,7.20
2018-11-28T14:18:15.680Z,7.20
2018-11-28T14:20:44.567Z,7.10
2018-11-28T14:23:13.359Z,7.10
2018-11-28T14:25:42.191Z,7.10
2018-11-28T14:28:11.389Z,7.10
2018-11-28T14:30:40.179Z,7.10
2018-11-28T14:33:08.966Z,7.10
2018-11-28T14:35:38.087Z,7.00
2018-11-28T14:38:06.896Z,7.00
2018-11-28T14:40:35.860Z,7.00
2018-11-28T14:43:04.750Z,6.90
2018-11-28T14:45:33.703Z,6.90
2018-11-28T14:48:02.619Z,6.90
2018-11-28T14:50:31.466Z,6.90
2018-11-28T14:53:01.870Z,6.90
2018-11-28T14:55:35.276Z,6.80
2018-11-28T14:58:04.169Z,6.80
2018-11-28T15:00:33.435Z,6.80
2018-11-28T15:03:06.937Z,6.70
2018-11-28T15:05:48.716Z,6.70
2018-11-28T15:08:18.854Z,6.70
2018-11-28T15:10:56.885Z,6.60
2018-11-28T15:13:26.085Z,6.60
2018-11-28T15:15:54.919Z,6.60
2018-11-28T15:18:24.048Z,6.60
2018-11-28T15:20:52.914Z,6.50
2018-11-28T15:23:21.704Z,6.50
2018-11-28T15:25:50.521Z,6.40
2018-11-28T15:28:19.304Z,6.40
2018-11-28T15:30:48.097Z,6.40
2018-11-28T15:33:16.890Z,6.40
2018-11-28T15:35:46.043Z,6.30
2018-11-28T15:38:14.823Z,6.30
2018-11-28T15:40:43.603Z,6.30
2018-11-28T15:43:12.404Z,6.30
2018-11-28T15:45:41.289Z,6.20
2018-11-28T15:48:10.096Z,6.20
2018-11-28T15:50:38.919Z,6.20
2018-11-28T15:53:07.763Z,6.20
2018-11-28T15:55:36.548Z,6.10
2018-11-28T15:58:05.904Z,6.10
2018-11-28T16:00:34.724Z,6.10
2018-11-28T16:03:03.547Z,6.10
2018-11-28T16:05:32.344Z,6.00
2018-11-28T16:08:01.157Z,6.00
2018-11-28T16:10:35.191Z,6.00
2018-11-28T16:13:04.013Z,6.00
2018-11-28T16:15:36.373Z,5.90
2018-11-28T16:18:05.276Z,5.90
2018-11-28T16:20:34.307Z,5.90
2018-11-28T16:23:04.663Z,5.80
2018-11-28T16:25:31.970Z,5.80
2018-11-28T16:28:00.777Z,5.80
2018-11-28T16:30:29.639Z,5.80
2018-11-28T16:32:58.473Z,5.80
2018-11-28T16:35:27.284Z,5.70
2018-11-28T16:37:56.403Z,5.70
2018-11-28T16:40:25.222Z,5.70
2018-11-28T16:42:54.021Z,5.70
2018-11-28T16:45:22.852Z,5.60
2018-11-28T16:47:51.643Z,5.60
2018-11-28T16:50:20.498Z,5.60
2018-11-28T16:52:49.310Z,5.60
2018-11-28T16:55:18.543Z,5.60
2018-11-28T16:57:53.174Z,5.60
2018-11-28T17:00:27.863Z,5.50
2018-11-28T17:02:57.400Z,5.50
2018-11-28T17:05:26.255Z,5.50
2018-11-28T17:07:55.114Z,5.50
2018-11-28T17:10:26.607Z,5.50
2018-11-28T17:12:56.519Z,5.50
2018-11-28T17:15:25.373Z,5.40
2018-11-28T17:17:54.797Z,5.40
2018-11-28T17:20:25.271Z,5.40
2018-11-28T17:22:56.109Z,5.40
2018-11-28T17:25:27.583Z,5.30
2018-11-28T17:27:56.417Z,5.30
2018-11-28T17:30:29.638Z,5.30
2018-11-28T17:32:58.475Z,5.20
2018-11-28T17:35:27.302Z,5.20
2018-11-28T17:37:56.498Z,5.20
2018-11-28T17:40:27.933Z,5.20
2018-11-28T17:42:58.365Z,5.10
2018-11-28T17:45:28.117Z,5.10
2018-11-28T17:47:56.931Z,5.10
2018-11-28T17:50:26.676Z,5.10
2018-11-28T17:53:08.565Z,5.00
2018-11-28T17:55:47.074Z,5.00
2018-11-28T17:58:15.935Z,5.00
2018-11-28T18:00:44.712Z,5.00
2018-11-28T18:03:13.532Z,5.00
2018-11-28T18:05:42.352Z,4.90
2018-11-28T18:08:11.153Z,4.90
2018-11-28T18:10:39.981Z,4.90
2018-11-28T18:13:14.331Z,4.90
2018-11-28T18:15:47.437Z,4.90
2018-11-28T18:18:20.447Z,4.90
2018-11-28T18:20:50.343Z,4.80
2018-11-28T18:23:18.422Z,4.80
2018-11-28T18:25:47.611Z,4.80
2018-11-28T18:28:16.448Z,4.80
2018-11-28T18:30:45.271Z,4.80
2018-11-28T18:33:14.708Z,4.70
2018-11-28T18:35:44.172Z,4.70
2018-11-28T18:38:12.964Z,4.70
2018-11-28T18:40:41.830Z,4.70
2018-11-28T18:43:11.396Z,4.70
2018-11-28T18:45:46.817Z,4.70
2018-11-28T18:48:15.624Z,4.70
2018-11-28T18:50:44.423Z,4.70
2018-11-28T18:53:13.213Z,4.70
2018-11-28T18:55:42.577Z,4.70
2018-11-28T18:58:12.637Z,4.70
2018-11-28T19:00:41.499Z,4.70
2018-11-28T19:03:10.305Z,4.70
2018-11-28T19:05:39.174Z,4.70
2018-11-28T19:08:08.550Z,4.60
2018-11-28T19:10:37.415Z,4.60
2018-11-28T19:13:06.287Z,4.70
2018-11-28T19:15:35.135Z,4.70
2018-11-28T19:18:04.450Z,4.60
2018-11-28T19:20:34.082Z,4.70
2018-11-28T19:23:02.915Z,4.70
2018-11-28T19:25:32.046Z,4.60
2018-11-28T19:28:00.886Z,4.60
2018-11-28T19:30:38.523Z,4.60
2018-11-28T19:33:10.219Z,4.60
2018-11-28T19:35:39.372Z,4.60
2018-11-28T19:38:11.107Z,4.60
2018-11-28T19:40:56.229Z,4.60
2018-11-28T19:43:25.106Z,4.60
2018-11-28T19:45:53.919Z,5.60
2018-11-28T19:48:22.736Z,4.60
2018-11-28T19:50:51.551Z,4.60
2018-11-28T19:53:20.339Z,4.60
2018-11-28T19:55:49.477Z,4.50
2018-11-28T19:58:18.267Z,4.40
2018-11-28T20:00:47.621Z,4.50
2018-11-28T20:03:16.427Z,4.50
2018-11-28T20:05:45.224Z,4.50
2018-11-28T20:08:14.131Z,4.50
2018-11-28T20:10:42.987Z,4.50
2018-11-28T20:13:11.901Z,4.50
2018-11-28T20:15:43.905Z,4.50
2018-11-28T20:18:13.141Z,4.50
2018-11-28T20:20:42.085Z,4.50
2018-11-28T20:23:10.904Z,4.50
2018-11-28T20:25:40.068Z,4.50
2018-11-28T20:28:09.857Z,4.50
2018-11-28T20:30:42.482Z,4.50
2018-11-28T20:33:12.241Z,4.50
2018-11-28T20:35:42.563Z,4.50
2018-11-28T20:38:19.630Z,4.50
2018-11-28T20:40:47.954Z,4.40
2018-11-28T20:43:16.769Z,4.40
2018-11-28T20:45:45.610Z,4.40
2018-11-28T20:48:14.433Z,4.40
2018-11-28T20:50:43.237Z,4.40
2018-11-28T20:53:14.446Z,4.40
2018-11-28T20:55:43.265Z,4.40
2018-11-28T20:58:12.048Z,4.40
2018-11-28T21:00:41.306Z,4.40
2018-11-28T21:03:10.175Z,4.30
2018-11-28T21:05:39.049Z,4.30
2018-11-28T21:08:09.686Z,4.40
2018-11-28T21:10:40.042Z,4.30
2018-11-28T21:13:12.421Z,4.40
2018-11-28T21:15:42.611Z,4.30
2018-11-28T21:18:11.444Z,4.30
2018-11-28T21:20:42.670Z,4.30
2018-11-28T21:23:15.151Z,4.30
2018-11-28T21:25:44.401Z,4.30
2018-11-28T21:28:13.209Z,4.30
2018-11-28T21:30:42.071Z,4.30
2018-11-28T21:33:12.788Z,4.30
2018-11-28T21:35:45.627Z,4.30
2018-11-28T21:38:15.035Z,4.30
2018-11-28T21:40:43.825Z,4.30
2018-11-28T21:43:13.408Z,4.30
2018-11-28T21:45:42.283Z,4.30
2018-11-28T21:48:11.064Z,4.30
2018-11-28T21:50:39.887Z,4.30
2018-11-28T21:53:09.577Z,4.20
2018-11-28T21:55:38.433Z,4.20
2018-11-28T21:58:07.239Z,4.30
2018-11-28T22:00:37.517Z,4.20
2018-11-28T22:03:07.224Z,4.20
2018-11-28T22:05:36.062Z,4.20
2018-11-28T22:08:05.013Z,4.20
2018-11-28T22:10:33.959Z,4.20
2018-11-28T22:13:02.743Z,4.20
2018-11-28T22:15:31.611Z,4.20
2018-11-28T22:18:00.508Z,4.20
2018-11-28T22:20:29.294Z,4.20
2018-11-28T22:22:58.311Z,4.20
2018-11-28T22:25:27.991Z,4.20
2018-11-28T22:27:56.986Z,4.20
2018-11-28T22:30:27.229Z,4.20
2018-11-28T22:32:56.170Z,4.20
2018-11-28T22:35:27.077Z,4.20
2018-11-28T22:37:56.098Z,4.20
2018-11-28T22:40:26.827Z,4.20
2018-11-28T22:42:55.705Z,4.20
2018-11-28T22:45:29.396Z,4.10
2018-11-28T22:47:58.232Z,4.20
2018-11-28T22:50:27.592Z,4.20
2018-11-28T22:52:56.419Z,4.10
2018-11-28T22:55:25.199Z,4.20
2018-11-28T22:57:54.041Z,4.10
2018-11-28T23:00:29.360Z,4.10
2018-11-28T23:03:07.721Z,4.10
2018-11-28T23:05:44.840Z,4.10
2018-11-28T23:08:15.243Z,4.10
2018-11-28T23:10:44.045Z,4.10
2018-11-28T23:13:14.616Z,4.10
2018-11-28T23:15:43.439Z,4.10
2018-11-28T23:18:12.467Z,4.00
2018-11-28T23:20:41.260Z,4.00
2018-11-28T23:23:10.176Z,4.00
2018-11-28T23:25:39.009Z,4.00
2018-11-28T23:28:09.041Z,4.00
2018-11-28T23:30:38.664Z,4.00
2018-11-28T23:33:09.490Z,4.00
2018-11-28T23:35:38.413Z,4.00
2018-11-28T23:38:07.967Z,4.00
2018-11-28T23:40:36.771Z,3.90
2018-11-28T23:43:06.133Z,3.90
2018-11-28T23:45:34.983Z,3.90
2018-11-28T23:48:03.795Z,3.90
2018-11-28T23:50:32.955Z,3.90
2018-11-28T23:53:01.757Z,3.90
2018-11-28T23:55:31.609Z,3.90
2018-11-28T23:58:00.445Z,3.90
